Time;durP1;ratioP1;P1;durP2;ratioP2;P2;SDS_P1;SDS_P2;PMS_P1;PMS_P2;Temp;Humidity;BMP_temperature;BMP_pressure;BME280_temperature;BME280_humidity;BME280_pressure;Samples;Min_cycle;Max_cycle;Signal;HPM_P1;HPM_P2
2022/09/10 00:00:20;;;;;;;14.23;9.85;;;14.90;99.90;;;;;;4956101;28;20475;-58
2022/09/10 00:02:48;;;;;;;12.10;9.75;;;14.90;99.90;;;;;;4955898;28;20051;-57
2022/09/10 00:05:15;;;;;;;15.38;10.00;;;14.90;99.90;;;;;;4956313;29;20102;-58
2022/09/10 00:07:42;;;;;;;13.95;9.88;;;14.90;99.90;;;;;;4954963;29;20121;-56
2022/09/10 00:10:09;;;;;;;15.48;10.85;;;14.80;99.90;;;;;;4956486;29;20098;-55
2022/09/10 00:12:36;;;;;;;14.82;10.25;;;14.80;99.90;;;;;;4956274;28;20054;-54
2022/09/10 00:15:02;;;;;;;13.93;9.85;;;14.80;99.90;;;;;;4955764;28;20110;-56
2022/09/10 00:17:30;;;;;;;15.73;10.70;;;14.80;99.90;;;;;;4956347;28;20043;-58
2022/09/10 00:19:58;;;;;;;15.45;10.65;;;14.80;99.90;;;;;;4956082;28;20043;-55
2022/09/10 00:22:24;;;;;;;16.58;13.05;;;14.80;99.90;;;;;;4955880;28;20054;-55
2022/09/10 00:24:51;;;;;;;16.52;11.30;;;14.80;99.90;;;;;;4954725;28;20363;-56
2022/09/10 00:27:18;;;;;;;15.27;11.70;;;14.80;99.90;;;;;;4956292;28;20043;-57
2022/09/10 00:29:45;;;;;;;16.40;10.77;;;14.70;99.90;;;;;;4955633;28;20043;-57
2022/09/10 00:32:13;;;;;;;22.60;13.02;;;14.70;99.90;;;;;;4955652;28;20496;-57
2022/09/10 00:34:40;;;;;;;16.60;11.50;;;14.70;99.90;;;;;;4955754;28;20380;-57
2022/09/10 00:37:07;;;;;;;16.20;11.75;;;14.70;99.90;;;;;;4954403;29;20089;-58
2022/09/10 00:39:33;;;;;;;18.70;12.95;;;14.60;99.90;;;;;;4956094;28;20047;-53
2022/09/10 00:42:00;;;;;;;19.17;12.15;;;14.60;99.90;;;;;;4954869;28;20130;-57
2022/09/10 00:44:27;;;;;;;18.02;12.80;;;14.60;99.90;;;;;;4953808;28;20039;-55
2022/09/10 00:46:58;;;;;;;19.70;13.07;;;14.60;99.90;;;;;;4955454;29;20043;-57
2022/09/10 00:49:24;;;;;;;16.00;12.88;;;14.50;99.90;;;;;;4955613;28;20047;-55
2022/09/10 00:51:51;;;;;;;16.05;12.45;;;14.50;99.90;;;;;;4955529;28;20043;-57
2022/09/10 00:54:18;;;;;;;18.92;12.95;;;14.50;99.90;;;;;;4955849;28;20530;-57
2022/09/10 00:56:44;;;;;;;16.75;12.88;;;14.50;99.90;;;;;;4955698;28;20082;-58
2022/09/10 00:59:11;;;;;;;16.88;13.40;;;14.50;99.90;;;;;;4955394;28;20049;-57
2022/09/10 01:01:38;;;;;;;16.35;13.68;;;14.50;99.90;;;;;;4955515;28;20076;-55
2022/09/10 01:04:05;;;;;;;14.68;12.70;;;14.50;99.90;;;;;;4954398;28;20051;-54
2022/09/10 01:06:31;;;;;;;17.38;12.75;;;14.50;99.90;;;;;;4954482;29;20051;-56
2022/09/10 01:08:58;;;;;;;17.38;12.98;;;14.50;99.90;;;;;;4955412;29;20040;-58
2022/09/10 01:11:25;;;;;;;16.00;12.68;;;14.50;99.90;;;;;;4955160;28;20054;-57
2022/09/10 01:13:52;;;;;;;17.77;12.88;;;14.50;99.90;;;;;;4955710;28;20131;-52
2022/09/10 01:16:19;;;;;;;17.42;12.60;;;14.50;99.90;;;;;;4954752;29;20043;-56
2022/09/10 01:18:46;;;;;;;15.75;12.27;;;14.40;99.90;;;;;;4954939;29;20115;-55
2022/09/10 01:21:13;;;;;;;14.98;12.40;;;14.40;99.90;;;;;;4954008;28;20047;-51
2022/09/10 01:23:40;;;;;;;17.83;12.60;;;14.40;99.90;;;;;;4953633;28;20043;-54
2022/09/10 01:26:07;;;;;;;14.48;12.23;;;14.40;99.90;;;;;;4953790;29;20046;-54
2022/09/10 01:28:34;;;;;;;13.90;12.32;;;14.30;99.90;;;;;;4953998;29;20066;-57
2022/09/10 01:31:02;;;;;;;17.30;12.35;;;14.40;99.90;;;;;;4954090;29;20043;-56
2022/09/10 01:33:29;;;;;;;18.02;13.20;;;14.30;99.90;;;;;;4954085;28;20074;-56
2022/09/10 01:35:55;;;;;;;20.23;13.02;;;14.30;99.90;;;;;;4954249;29;20048;-57
2022/09/10 01:38:22;;;;;;;17.13;13.25;;;14.40;99.90;;;;;;4953827;29;20447;-55
2022/09/10 01:40:50;;;;;;;18.23;12.88;;;14.30;99.90;;;;;;4953700;29;20047;-58
2022/09/10 01:43:21;;;;;;;14.35;12.82;;;14.30;99.90;;;;;;4953815;28;20138;-55
2022/09/10 01:45:53;;;;;;;14.35;12.43;;;14.30;99.90;;;;;;4953641;28;20130;-53
2022/09/10 01:48:21;;;;;;;14.20;12.02;;;14.30;99.90;;;;;;4953736;28;20047;-57
2022/09/10 01:50:48;;;;;;;15.63;12.07;;;14.20;99.90;;;;;;4937746;29;20055;-56
2022/09/10 01:53:16;;;;;;;16.67;12.75;;;14.20;99.90;;;;;;4953523;28;20046;-57
2022/09/10 01:55:43;;;;;;;14.90;12.45;;;14.20;99.90;;;;;;4954587;28;20075;-58
2022/09/10 01:58:10;;;;;;;15.13;12.63;;;14.20;99.90;;;;;;4957233;28;20048;-53
2022/09/10 02:00:43;;;;;;;15.68;12.73;;;14.20;99.90;;;;;;4957587;29;20044;-56
2022/09/10 02:03:10;;;;;;;14.68;12.70;;;14.10;99.90;;;;;;4956703;28;20471;-58
2022/09/10 02:05:37;;;;;;;14.80;12.55;;;14.10;99.90;;;;;;4958292;29;20039;-56
2022/09/10 02:08:07;;;;;;;15.68;12.57;;;14.10;99.90;;;;;;4957027;28;20076;-56
2022/09/10 02:10:34;;;;;;;15.50;13.57;;;14.10;99.90;;;;;;4956911;28;20083;-55
2022/09/10 02:13:05;;;;;;;16.00;12.38;;;14.10;99.90;;;;;;4958325;28;20364;-58
2022/09/10 02:15:51;;;;;;;16.00;13.23;;;14.10;99.90;;;;;;4958705;28;20094;-57
2022/09/10 02:18:21;;;;;;;16.63;12.93;;;14.10;99.90;;;;;;4958272;28;20043;-52
2022/09/10 02:20:48;;;;;;;15.13;12.63;;;14.10;99.90;;;;;;4956962;28;20076;-54
2022/09/10 02:23:17;;;;;;;14.88;13.02;;;14.10;99.90;;;;;;4958285;28;20090;-57
2022/09/10 02:25:43;;;;;;;17.17;14.13;;;14.10;99.90;;;;;;4956620;29;20075;-53
2022/09/10 02:28:10;;;;;;;19.55;13.82;;;14.10;99.90;;;;;;4957134;29;20047;-51
2022/09/10 02:30:37;;;;;;;14.32;12.80;;;14.00;99.90;;;;;;4956638;29;20423;-55
2022/09/10 02:33:04;;;;;;;16.30;14.52;;;14.00;99.90;;;;;;4958034;28;21339;-54
2022/09/10 02:35:30;;;;;;;21.10;14.10;;;14.00;99.90;;;;;;4958040;29;20094;-57
2022/09/10 02:37:57;;;;;;;15.82;13.40;;;14.00;99.90;;;;;;4956431;29;20138;-54
2022/09/10 02:40:24;;;;;;;18.08;13.52;;;14.00;99.90;;;;;;4956309;28;20043;-56
2022/09/10 02:42:51;;;;;;;17.88;13.88;;;14.00;99.90;;;;;;4956885;28;20047;-55
2022/09/10 02:45:22;;;;;;;14.98;13.32;;;14.00;99.90;;;;;;4956302;29;20043;-56
2022/09/10 02:47:49;;;;;;;18.20;14.55;;;13.90;99.90;;;;;;4956518;29;20079;-58
2022/09/10 02:50:16;;;;;;;19.50;14.25;;;13.90;99.90;;;;;;4956192;29;20051;-55
2022/09/10 02:52:45;;;;;;;16.27;14.30;;;13.90;99.90;;;;;;4956596;28;20047;-56
2022/09/10 02:55:11;;;;;;;16.15;14.10;;;13.90;99.90;;;;;;4956327;28;20047;-57
2022/09/10 02:57:41;;;;;;;17.20;14.18;;;13.90;99.90;;;;;;4956040;29;20392;-57
2022/09/10 03:00:07;;;;;;;20.65;14.15;;;13.90;99.90;;;;;;4957389;28;20043;-58
2022/09/10 03:02:35;;;;;;;17.42;14.10;;;13.90;99.90;;;;;;4957073;28;20047;-58
2022/09/10 03:05:03;;;;;;;19.92;14.65;;;14.00;99.90;;;;;;4957319;28;20407;-57
2022/09/10 03:07:30;;;;;;;15.88;13.20;;;14.00;99.90;;;;;;4957364;28;20518;-58
2022/09/10 03:09:57;;;;;;;17.48;14.07;;;14.10;99.90;;;;;;4956547;28;20055;-52
2022/09/10 03:12:25;;;;;;;15.02;13.43;;;14.10;99.90;;;;;;4955866;29;20506;-56
2022/09/10 03:14:52;;;;;;;19.20;14.05;;;14.10;99.90;;;;;;4956421;28;20051;-57
2022/09/10 03:17:21;;;;;;;15.90;13.75;;;14.20;99.90;;;;;;4956116;28;20134;-55
2022/09/10 03:19:48;;;;;;;17.23;14.57;;;14.20;99.90;;;;;;4939910;29;20044;-56
2022/09/10 03:22:15;;;;;;;20.95;16.25;;;14.20;99.90;;;;;;4956225;28;20086;-55
2022/09/10 03:24:42;;;;;;;22.83;15.70;;;14.20;99.90;;;;;;4955696;28;20079;-57
2022/09/10 03:27:09;;;;;;;18.63;14.75;;;14.30;99.90;;;;;;4955721;28;20085;-55
2022/09/10 03:29:36;;;;;;;18.95;15.60;;;14.30;99.90;;;;;;4957166;28;20387;-56
2022/09/10 03:32:02;;;;;;;20.27;15.35;;;14.30;99.90;;;;;;4955895;28;20042;-57
2022/09/10 03:34:29;;;;;;;19.23;15.57;;;14.30;99.90;;;;;;4955884;28;20045;-57
2022/09/10 03:36:56;;;;;;;19.25;15.55;;;14.30;99.90;;;;;;4957295;28;20039;-56
2022/09/10 03:39:23;;;;;;;18.77;16.02;;;14.40;99.90;;;;;;4957191;28;20524;-56
2022/09/10 03:41:50;;;;;;;18.48;16.15;;;14.40;99.90;;;;;;4955223;29;20043;-54
2022/09/10 03:44:17;;;;;;;17.33;15.52;;;14.40;99.90;;;;;;4955234;28;20047;-56
2022/09/10 03:46:47;;;;;;;18.38;15.80;;;14.40;99.90;;;;;;4955325;29;20042;-55
2022/09/10 03:49:16;;;;;;;18.50;15.45;;;14.40;99.90;;;;;;4955698;28;20048;-56
2022/09/10 03:51:43;;;;;;;16.23;14.45;;;14.40;99.90;;;;;;4954951;28;20043;-52
2022/09/10 03:54:10;;;;;;;18.90;15.13;;;14.40;99.90;;;;;;4954999;28;20047;-53
2022/09/10 03:56:38;;;;;;;19.80;14.80;;;14.40;99.90;;;;;;4955093;29;20058;-52
2022/09/10 03:59:07;;;;;;;22.17;14.80;;;14.50;99.90;;;;;;4955433;29;20126;-52
2022/09/10 04:01:34;;;;;;;16.25;14.63;;;14.50;99.90;;;;;;4956233;28;20117;-57
2022/09/10 04:04:03;;;;;;;15.75;13.63;;;14.50;99.90;;;;;;4954555;28;20118;-55
2022/09/10 04:06:31;;;;;;;19.30;15.55;;;14.50;99.90;;;;;;4955408;29;20054;-57
2022/09/10 04:09:00;;;;;;;18.60;14.60;;;14.50;99.90;;;;;;4954987;28;20040;-56
2022/09/10 04:11:27;;;;;;;18.48;14.38;;;14.50;99.90;;;;;;4955336;29;20078;-54
2022/09/10 04:13:55;;;;;;;16.58;14.73;;;14.50;99.90;;;;;;4956709;28;20047;-57
2022/09/10 04:16:23;;;;;;;20.08;14.98;;;14.50;99.90;;;;;;4955261;28;20051;-55
2022/09/10 04:18:50;;;;;;;21.65;15.73;;;14.50;99.90;;;;;;4953834;28;20542;-57
2022/09/10 04:21:19;;;;;;;19.63;15.00;;;14.60;99.90;;;;;;4954794;28;20130;-55
2022/09/10 04:23:47;;;;;;;20.77;15.50;;;14.60;99.90;;;;;;4954672;28;20545;-56
2022/09/10 04:26:15;;;;;;;20.92;15.45;;;14.60;99.90;;;;;;4955752;29;20047;-56
2022/09/10 04:28:44;;;;;;;18.83;15.48;;;14.60;99.90;;;;;;4955018;28;20048;-56
2022/09/10 04:31:11;;;;;;;18.70;15.88;;;14.60;99.90;;;;;;4954995;29;20059;-57
2022/09/10 04:33:38;;;;;;;19.52;15.43;;;14.60;99.90;;;;;;4954269;28;20051;-56
2022/09/10 04:36:05;;;;;;;18.17;15.60;;;14.60;99.90;;;;;;4954508;28;20146;-57
2022/09/10 04:38:38;;;;;;;22.73;16.38;;;14.60;99.90;;;;;;4955010;29;20071;-58
2022/09/10 04:41:05;;;;;;;18.63;15.98;;;14.60;99.90;;;;;;4954230;29;20043;-57
2022/09/10 04:43:32;;;;;;;17.67;15.82;;;14.60;99.90;;;;;;4954222;28;20043;-57
2022/09/10 04:46:00;;;;;;;17.23;15.25;;;14.60;99.90;;;;;;4954945;28;20079;-56
2022/09/10 04:48:29;;;;;;;19.40;15.23;;;14.60;99.90;;;;;;4954646;28;20462;-54
2022/09/10 04:50:55;;;;;;;18.35;15.10;;;14.60;99.90;;;;;;4955454;28;20101;-57
2022/09/10 04:53:43;;;;;;;15.40;13.82;;;14.60;99.90;;;;;;4954062;28;20057;-55
2022/09/10 04:56:10;;;;;;;16.67;14.60;;;14.60;99.90;;;;;;4954731;29;20071;-57
2022/09/10 04:58:37;;;;;;;17.77;14.40;;;14.60;99.90;;;;;;4954719;28;20125;-56
2022/09/10 05:01:05;;;;;;;18.98;14.23;;;14.60;99.90;;;;;;4953962;28;20110;-54
2022/09/10 05:03:32;;;;;;;18.40;14.35;;;14.60;99.90;;;;;;4953798;28;20055;-53
2022/09/10 05:06:01;;;;;;;16.10;14.40;;;14.60;99.90;;;;;;4954528;29;20051;-54
2022/09/10 05:08:28;;;;;;;17.58;14.27;;;14.60;99.90;;;;;;4955574;29;20151;-54
2022/09/10 05:10:59;;;;;;;18.20;13.43;;;14.60;99.90;;;;;;4953947;29;20051;-56
2022/09/10 05:13:27;;;;;;;15.63;13.75;;;14.60;99.90;;;;;;4953769;28;20043;-57
2022/09/10 05:15:54;;;;;;;19.70;13.88;;;14.60;99.90;;;;;;4953929;29;20047;-54
2022/09/10 05:18:21;;;;;;;16.08;13.88;;;14.60;99.90;;;;;;4953840;28;20074;-57
2022/09/10 05:20:47;;;;;;;17.20;13.63;;;14.60;99.90;;;;;;4954220;28;20135;-58
2022/09/10 05:23:14;;;;;;;16.20;13.63;;;14.60;99.90;;;;;;4953884;28;20035;-57
2022/09/10 05:25:41;;;;;;;18.42;14.10;;;14.60;99.90;;;;;;4954083;28;20050;-57
2022/09/10 05:28:08;;;;;;;16.70;14.05;;;14.60;99.90;;;;;;4954309;29;20134;-57
2022/09/10 05:30:36;;;;;;;17.30;15.02;;;14.60;99.90;;;;;;4956306;28;20055;-56
2022/09/10 05:33:02;;;;;;;17.88;14.40;;;14.60;99.90;;;;;;4959264;28;20118;-55
2022/09/10 05:35:32;;;;;;;16.70;14.55;;;14.60;99.90;;;;;;4958272;28;20133;-56
2022/09/10 05:37:59;;;;;;;19.23;14.60;;;14.60;99.90;;;;;;4957454;28;20047;-57
2022/09/10 05:40:28;;;;;;;16.17;14.10;;;14.60;99.90;;;;;;4957421;29;20039;-55
2022/09/10 05:42:55;;;;;;;17.13;13.93;;;14.70;99.90;;;;;;4957638;28;20046;-56
2022/09/10 05:45:22;;;;;;;17.33;13.93;;;14.70;99.90;;;;;;4957428;28;20039;-57
2022/09/10 05:47:50;;;;;;;20.60;15.23;;;14.70;99.90;;;;;;4957369;28;20043;-57
2022/09/10 05:50:20;;;;;;;15.95;14.00;;;14.70;99.90;;;;;;4957544;28;20491;-57
2022/09/10 05:52:48;;;;;;;20.33;14.35;;;14.70;99.90;;;;;;4957374;28;20059;-57
2022/09/10 05:55:15;;;;;;;16.13;14.38;;;14.80;99.90;;;;;;4957196;28;20043;-56
2022/09/10 05:57:42;;;;;;;20.77;14.20;;;14.80;99.90;;;;;;4957486;29;20051;-55
2022/09/10 06:00:14;;;;;;;15.55;13.93;;;14.80;99.90;;;;;;4957095;29;20066;-56
2022/09/10 06:02:49;;;;;;;17.80;14.68;;;14.80;99.90;;;;;;4956999;28;20047;-56
2022/09/10 06:05:27;;;;;;;19.90;15.07;;;14.90;99.90;;;;;;4957623;28;20066;-57
2022/09/10 06:07:55;;;;;;;18.30;14.60;;;14.90;99.90;;;;;;4957717;28;20050;-57
2022/09/10 06:10:22;;;;;;;16.73;14.90;;;14.90;99.90;;;;;;4957248;29;20444;-57
2022/09/10 06:12:50;;;;;;;16.75;14.95;;;14.90;99.90;;;;;;4956796;28;20532;-57
2022/09/10 06:15:19;;;;;;;18.17;15.05;;;14.90;99.90;;;;;;4957023;28;20137;-57
2022/09/10 06:17:47;;;;;;;16.73;14.40;;;14.90;99.90;;;;;;4957465;29;20047;-54
2022/09/10 06:20:15;;;;;;;18.40;14.90;;;14.90;99.90;;;;;;4956680;29;20487;-58
2022/09/10 06:22:43;;;;;;;16.75;13.85;;;14.90;99.90;;;;;;4958353;28;20047;-58
2022/09/10 06:25:11;;;;;;;19.27;15.35;;;14.90;99.90;;;;;;4956791;28;20058;-55
2022/09/10 06:27:38;;;;;;;19.23;15.13;;;14.90;99.90;;;;;;4956824;28;20051;-56
2022/09/10 06:30:05;;;;;;;18.83;14.50;;;15.00;99.90;;;;;;4956711;29;20502;-56
2022/09/10 06:32:33;;;;;;;16.05;14.10;;;15.00;99.90;;;;;;4956538;29;20102;-55
2022/09/10 06:35:01;;;;;;;16.73;14.93;;;15.00;99.90;;;;;;4956395;28;20134;-55
2022/09/10 06:37:29;;;;;;;17.08;15.15;;;15.00;99.90;;;;;;4958027;28;20054;-57
2022/09/10 06:39:55;;;;;;;17.25;15.25;;;15.10;99.90;;;;;;4956549;28;20146;-56
2022/09/10 06:42:23;;;;;;;17.38;15.43;;;15.10;99.90;;;;;;4956193;28;20423;-56
2022/09/10 06:45:03;;;;;;;16.58;14.88;;;15.10;99.90;;;;;;4956300;28;20035;-54
2022/09/10 06:47:44;;;;;;;15.68;14.07;;;15.10;99.90;;;;;;4956410;29;20455;-56
2022/09/10 06:50:42;;;;;;;17.95;14.95;;;15.20;99.90;;;;;;4956224;29;20483;-57
2022/09/10 06:53:10;;;;;;;23.38;15.05;;;15.20;99.90;;;;;;4956101;28;20086;-58
2022/09/10 06:55:37;;;;;;;15.95;14.15;;;15.20;99.90;;;;;;4956479;28;20066;-55
2022/09/10 06:58:04;;;;;;;16.27;14.57;;;15.10;99.90;;;;;;4956426;29;20050;-56
2022/09/10 07:00:32;;;;;;;16.02;14.20;;;15.20;99.90;;;;;;4956040;29;20101;-53
2022/09/10 07:02:59;;;;;;;19.85;14.43;;;15.20;99.90;;;;;;4956051;28;20051;-58
2022/09/10 07:05:28;;;;;;;19.65;15.10;;;15.30;99.90;;;;;;4956683;29;20059;-58
2022/09/10 07:07:56;;;;;;;20.65;14.35;;;15.30;99.90;;;;;;4957849;28;20138;-56
2022/09/10 07:10:23;;;;;;;18.25;14.27;;;15.30;99.90;;;;;;4956086;28;20483;-56
2022/09/10 07:12:50;;;;;;;20.35;14.00;;;15.40;99.90;;;;;;4955758;28;20047;-56
2022/09/10 07:15:18;;;;;;;17.65;13.90;;;15.40;99.90;;;;;;4956140;29;20060;-57
2022/09/10 07:17:45;;;;;;;16.95;13.48;;;15.40;99.90;;;;;;4957250;28;20053;-55
2022/09/10 07:20:12;;;;;;;15.13;13.10;;;15.50;99.90;;;;;;4956927;28;20039;-56
2022/09/10 07:22:43;;;;;;;18.20;12.45;;;15.50;99.90;;;;;;4955638;28;20490;-54
2022/09/10 07:25:12;;;;;;;15.70;12.45;;;15.50;99.90;;;;;;4955675;28;20051;-55
2022/09/10 07:27:50;;;;;;;15.70;12.55;;;15.60;99.90;;;;;;4955567;29;20054;-53
2022/09/10 07:30:17;;;;;;;14.55;12.90;;;15.70;99.90;;;;;;4956106;28;20047;-57
2022/09/10 07:32:45;;;;;;;14.07;12.68;;;15.70;99.90;;;;;;4955311;28;20525;-56
2022/09/10 07:35:14;;;;;;;17.05;13.57;;;15.70;99.90;;;;;;4939816;29;20047;-63
2022/09/10 07:37:41;;;;;;;16.60;13.80;;;15.70;99.90;;;;;;4940233;29;20137;-56
2022/09/10 07:40:07;;;;;;;16.70;13.80;;;15.80;99.90;;;;;;4943313;29;20043;-55
2022/09/10 07:42:36;;;;;;;17.95;15.05;;;15.80;99.90;;;;;;4943186;28;20043;-57
2022/09/10 07:45:04;;;;;;;17.75;14.25;;;15.80;99.90;;;;;;4943619;28;20403;-56
2022/09/10 07:47:32;;;;;;;21.85;15.18;;;15.80;99.90;;;;;;4943523;29;20046;-54
2022/09/10 07:49:59;;;;;;;21.95;14.95;;;15.80;99.90;;;;;;4935845;29;20046;-56
2022/09/10 07:52:26;;;;;;;21.70;14.93;;;15.90;99.90;;;;;;4936053;29;20365;-57
2022/09/10 07:54:54;;;;;;;20.35;14.50;;;15.90;99.90;;;;;;4935280;29;20057;-54
2022/09/10 07:57:21;;;;;;;18.05;14.40;;;15.90;99.90;;;;;;4936466;29;20428;-55
2022/09/10 07:59:49;;;;;;;17.33;14.02;;;16.00;99.90;;;;;;4935712;29;20497;-56
2022/09/10 08:02:20;;;;;;;20.58;14.77;;;16.00;99.90;;;;;;4935901;29;20050;-57
2022/09/10 08:04:54;;;;;;;20.33;15.07;;;16.10;99.90;;;;;;4936013;29;20071;-53
2022/09/10 08:07:21;;;;;;;19.95;15.13;;;16.10;99.90;;;;;;4937373;29;20050;-55
2022/09/10 08:09:47;;;;;;;19.40;14.23;;;16.10;99.90;;;;;;4936158;29;20546;-57
2022/09/10 08:12:16;;;;;;;18.42;15.15;;;16.20;99.90;;;;;;4936285;29;20052;-53
2022/09/10 08:14:45;;;;;;;16.17;14.52;;;16.20;99.90;;;;;;4935821;29;20129;-55
2022/09/10 08:17:12;;;;;;;17.38;14.80;;;16.30;99.90;;;;;;4935832;29;20055;-54
2022/09/10 08:19:42;;;;;;;19.73;14.73;;;16.30;99.90;;;;;;4935640;29;20554;-56
2022/09/10 08:22:09;;;;;;;17.60;14.45;;;16.30;99.90;;;;;;4935671;29;20051;-55
2022/09/10 08:24:46;;;;;;;19.67;16.02;;;16.30;99.90;;;;;;4935461;29;20459;-56
2022/09/10 08:27:14;;;;;;;16.88;14.73;;;16.30;99.90;;;;;;4936241;29;20134;-57
2022/09/10 08:29:42;;;;;;;19.17;14.50;;;16.40;99.90;;;;;;4936001;29;20135;-57
2022/09/10 08:32:11;;;;;;;17.27;14.20;;;16.30;99.90;;;;;;4935474;29;20060;-56
2022/09/10 08:34:39;;;;;;;20.52;14.30;;;16.40;99.90;;;;;;4935723;29;20051;-56
2022/09/10 08:37:08;;;;;;;20.27;13.05;;;16.50;99.90;;;;;;4935280;29;20066;-56
2022/09/10 08:39:36;;;;;;;14.95;13.32;;;16.60;99.90;;;;;;4935369;29;20068;-57
2022/09/10 08:42:03;;;;;;;18.35;13.85;;;16.70;99.90;;;;;;4935346;29;20090;-57
2022/09/10 08:44:32;;;;;;;16.75;13.23;;;16.80;99.90;;;;;;4935432;29;20052;-56
2022/09/10 08:47:00;;;;;;;16.25;12.95;;;16.80;99.90;;;;;;4935596;29;20048;-56
2022/09/10 08:49:27;;;;;;;17.70;12.50;;;16.90;99.90;;;;;;4935672;29;20047;-53
2022/09/10 08:51:54;;;;;;;15.65;12.75;;;17.00;99.90;;;;;;4936938;29;20091;-53
2022/09/10 08:54:23;;;;;;;16.63;13.48;;;17.00;99.90;;;;;;4935023;29;20051;-54
2022/09/10 08:56:52;;;;;;;14.98;11.82;;;17.00;99.90;;;;;;4935786;29;20542;-53
2022/09/10 08:59:20;;;;;;;16.42;12.38;;;17.10;99.90;;;;;;4936700;29;20522;-53
2022/09/10 09:01:49;;;;;;;13.90;12.23;;;17.10;99.90;;;;;;4934920;29;20071;-57
2022/09/10 09:04:16;;;;;;;16.27;11.60;;;17.20;99.90;;;;;;4934895;29;20052;-57
2022/09/10 09:06:44;;;;;;;13.88;11.20;;;17.30;99.90;;;;;;4934111;29;20071;-55
2022/09/10 09:09:11;;;;;;;13.95;11.45;;;17.30;99.90;;;;;;4934386;29;20051;-54
2022/09/10 09:11:43;;;;;;;17.70;12.18;;;17.40;99.90;;;;;;4934342;29;20589;-55
2022/09/10 09:14:09;;;;;;;13.10;11.23;;;17.50;99.90;;;;;;4935667;29;20439;-55
2022/09/10 09:16:38;;;;;;;15.68;11.32;;;17.50;99.90;;;;;;4934369;29;20051;-55
2022/09/10 09:19:05;;;;;;;17.05;11.85;;;17.50;99.90;;;;;;4936255;29;20040;-58
2022/09/10 09:21:32;;;;;;;16.67;11.45;;;17.50;99.90;;;;;;4955666;28;20133;-57
2022/09/10 09:24:00;;;;;;;12.60;11.32;;;17.50;99.90;;;;;;4948011;28;20044;-55
2022/09/10 09:26:49;;;;;;;13.27;10.55;;;17.60;99.90;;;;;;4953430;28;20514;-55
2022/09/10 09:29:17;;;;;;;19.73;11.52;;;17.70;99.90;;;;;;4954039;29;20123;-57
2022/09/10 09:31:45;;;;;;;15.70;10.73;;;17.80;99.90;;;;;;4953365;29;20048;-58
2022/09/10 09:34:12;;;;;;;14.43;10.55;;;17.90;99.90;;;;;;4943357;28;20048;-57
2022/09/10 09:36:39;;;;;;;14.50;10.65;;;18.00;99.90;;;;;;4946212;28;20066;-57
2022/09/10 09:39:06;;;;;;;14.18;10.35;;;18.00;99.90;;;;;;4947982;29;20419;-56
2022/09/10 09:41:34;;;;;;;15.48;10.43;;;18.10;99.90;;;;;;4943068;29;20044;-59
2022/09/10 09:44:01;;;;;;;14.55;11.30;;;18.10;99.90;;;;;;4946797;28;20521;-56
2022/09/10 09:46:29;;;;;;;12.15;9.77;;;18.20;99.90;;;;;;4953024;28;20067;-56
2022/09/10 09:48:59;;;;;;;16.60;11.38;;;18.20;99.90;;;;;;4948424;29;20046;-54
2022/09/10 09:51:29;;;;;;;11.50;9.88;;;18.10;99.90;;;;;;4949789;29;20418;-55
2022/09/10 09:53:56;;;;;;;13.95;10.65;;;18.10;99.90;;;;;;4942940;29;20043;-57
2022/09/10 09:56:44;;;;;;;11.40;10.10;;;18.20;99.90;;;;;;4950849;29;20168;-55
2022/09/10 09:59:11;;;;;;;13.52;9.98;;;18.40;99.90;;;;;;4954294;28;20044;-51
2022/09/10 10:01:41;;;;;;;14.60;9.10;;;18.50;99.90;;;;;;4954621;28;20502;-52
2022/09/10 10:04:08;;;;;;;13.10;10.52;;;18.50;99.90;;;;;;4954328;28;20066;-58
2022/09/10 10:06:35;;;;;;;14.55;9.82;;;18.50;99.90;;;;;;4954841;28;20047;-55
2022/09/10 10:09:01;;;;;;;13.88;9.10;;;18.60;99.90;;;;;;4954388;28;20082;-57
2022/09/10 10:11:28;;;;;;;9.85;8.52;;;18.70;99.90;;;;;;4952820;28;20432;-52
2022/09/10 10:13:55;;;;;;;12.52;8.60;;;18.70;99.90;;;;;;4953842;28;20045;-52
2022/09/10 10:16:22;;;;;;;10.35;7.63;;;18.80;99.90;;;;;;4954221;28;20090;-52
2022/09/10 10:18:48;;;;;;;13.68;7.95;;;18.90;99.90;;;;;;4957042;29;20067;-52
2022/09/10 10:21:15;;;;;;;10.65;7.90;;;19.10;99.90;;;;;;4957288;29;20118;-55
2022/09/10 10:23:42;;;;;;;12.20;8.15;;;19.10;99.90;;;;;;4955350;29;20047;-52
2022/09/10 10:26:09;;;;;;;11.82;7.50;;;19.10;99.90;;;;;;4957877;29;20118;-55
2022/09/10 10:28:36;;;;;;;10.02;6.70;;;19.00;99.90;;;;;;4957027;28;20075;-56
2022/09/10 10:31:03;;;;;;;11.30;6.82;;;19.00;99.90;;;;;;4955418;28;20063;-54
2022/09/10 10:33:30;;;;;;;11.43;6.50;;;19.00;99.90;;;;;;4956842;28;20039;-55
2022/09/10 10:35:57;;;;;;;10.77;6.80;;;19.00;99.90;;;;;;4956325;28;20513;-56
2022/09/10 10:38:24;;;;;;;9.82;6.18;;;19.10;99.90;;;;;;4957507;29;20100;-55
2022/09/10 10:40:50;;;;;;;10.15;6.07;;;19.20;99.90;;;;;;4957479;28;20494;-54
2022/09/10 10:43:17;;;;;;;15.07;6.10;;;19.20;99.90;;;;;;4957243;28;20039;-52
2022/09/10 10:45:46;;;;;;;9.90;5.93;;;19.10;99.90;;;;;;4951668;29;20039;-55
2022/09/10 10:48:13;;;;;;;11.45;6.30;;;19.10;99.90;;;;;;4954748;29;20062;-55
2022/09/10 10:50:41;;;;;;;10.50;5.75;;;19.00;99.90;;;;;;4955060;28;20475;-52
2022/09/10 10:53:08;;;;;;;14.98;6.43;;;19.00;99.90;;;;;;4956472;28;20066;-55
2022/09/10 10:55:34;;;;;;;11.60;5.35;;;19.00;99.90;;;;;;4955866;28;20049;-54
2022/09/10 10:58:01;;;;;;;11.10;4.80;;;19.10;99.90;;;;;;4957468;29;20126;-52
2022/09/10 11:00:28;;;;;;;9.18;3.78;;;19.10;99.90;;;;;;4954970;28;20039;-53
2022/09/10 11:02:55;;;;;;;9.15;4.07;;;19.10;99.90;;;;;;4955474;28;20114;-55
2022/09/10 11:05:21;;;;;;;6.70;3.33;;;19.10;99.90;;;;;;4954572;28;20043;-53
2022/09/10 11:07:48;;;;;;;12.18;3.80;;;19.20;99.90;;;;;;4953904;28;20042;-53
2022/09/10 11:10:15;;;;;;;10.43;3.83;;;19.30;99.90;;;;;;4955915;28;20076;-57
2022/09/10 11:12:41;;;;;;;8.90;3.28;;;19.40;99.90;;;;;;4957173;28;20043;-59
2022/09/10 11:15:08;;;;;;;10.07;3.00;;;19.40;99.90;;;;;;4952372;28;20086;-56
2022/09/10 11:17:37;;;;;;;5.30;2.67;;;19.50;99.90;;;;;;4955134;29;20126;-56
2022/09/10 11:20:04;;;;;;;8.65;3.08;;;19.60;99.90;;;;;;4956765;28;20066;-54
2022/09/10 11:22:50;;;;;;;8.98;3.03;;;19.70;99.90;;;;;;4957041;28;20043;-58
2022/09/10 11:25:18;;;;;;;11.35;3.08;;;19.90;99.90;;;;;;4956253;28;20047;-56
2022/09/10 11:27:45;;;;;;;6.57;3.20;;;20.00;99.90;;;;;;4956685;28;20546;-53
2022/09/10 11:30:11;;;;;;;8.68;3.15;;;20.00;99.90;;;;;;4956707;28;20521;-53
2022/09/10 11:32:38;;;;;;;12.50;2.83;;;20.20;99.90;;;;;;4956819;28;20074;-57
2022/09/10 11:35:05;;;;;;;8.85;2.80;;;20.20;99.90;;;;;;4956810;29;20098;-57
2022/09/10 11:37:32;;;;;;;9.55;2.70;;;20.20;99.90;;;;;;4956633;28;20047;-54
2022/09/10 11:39:59;;;;;;;8.63;2.55;;;20.10;99.90;;;;;;4956574;28;20047;-57
2022/09/10 11:42:26;;;;;;;7.85;2.70;;;20.10;99.90;;;;;;4956495;29;20130;-57
2022/09/10 11:44:53;;;;;;;8.15;2.42;;;20.20;99.90;;;;;;4956411;28;20118;-57
2022/09/10 11:47:20;;;;;;;6.03;2.42;;;20.20;99.90;;;;;;4950300;29;20047;-56
2022/09/10 11:49:47;;;;;;;6.13;2.10;;;20.30;99.90;;;;;;4949006;29;20123;-58
2022/09/10 11:52:13;;;;;;;8.15;2.78;;;20.40;99.90;;;;;;4947133;29;20431;-57
2022/09/10 11:54:41;;;;;;;6.55;2.47;;;20.30;99.90;;;;;;4951178;28;20051;-55
2022/09/10 11:57:07;;;;;;;6.43;2.40;;;20.20;99.90;;;;;;4953068;28;20090;-53
2022/09/10 11:59:35;;;;;;;7.13;2.65;;;20.10;99.90;;;;;;4955967;28;20082;-52
2022/09/10 12:02:02;;;;;;;8.95;2.42;;;20.10;99.90;;;;;;4955941;29;20068;-53
2022/09/10 12:04:29;;;;;;;5.75;2.00;;;19.80;99.90;;;;;;4942694;28;20090;-53
2022/09/10 12:06:56;;;;;;;6.20;1.90;;;19.70;99.90;;;;;;4952666;28;20043;-55
2022/09/10 12:09:22;;;;;;;7.82;2.58;;;19.60;99.90;;;;;;4956535;28;20123;-54
2022/09/10 12:11:50;;;;;;;5.20;2.55;;;19.60;99.90;;;;;;4952102;28;20036;-55
2022/09/10 12:14:17;;;;;;;8.45;2.50;;;19.50;99.90;;;;;;4950320;29;20115;-53
2022/09/10 12:16:45;;;;;;;7.13;2.30;;;19.60;99.90;;;;;;4953975;28;20047;-50
2022/09/10 12:19:11;;;;;;;6.15;2.50;;;19.60;99.90;;;;;;4954415;28;20130;-55
2022/09/10 12:21:38;;;;;;;11.13;2.50;;;19.60;99.90;;;;;;4956213;28;20051;-51
2022/09/10 12:24:05;;;;;;;7.68;2.83;;;19.70;99.90;;;;;;4952517;28;20066;-55
2022/09/10 12:26:32;;;;;;;6.75;2.55;;;19.80;99.90;;;;;;4954236;28;20035;-51
2022/09/10 12:28:58;;;;;;;5.32;2.63;;;19.70;99.90;;;;;;4953392;28;20047;-54
2022/09/10 12:31:26;;;;;;;6.82;2.90;;;19.70;99.90;;;;;;4953434;28;20114;-50
2022/09/10 12:33:53;;;;;;;5.43;2.42;;;19.80;99.90;;;;;;4953379;28;20043;-53